createdAt,value
2019-06-23T00:00:48.082Z,13.93
2019-06-23T00:03:17.431Z,14.73
2019-06-23T00:08:16.408Z,16.93
2019-06-23T00:10:45.802Z,14.27
2019-06-23T00:13:15.276Z,15.43
2019-06-23T00:15:44.658Z,16.43
2019-06-23T00:18:14.005Z,16.48
2019-06-23T00:20:43.360Z,13.70
2019-06-23T00:23:12.703Z,15.63
2019-06-23T00:25:42.129Z,14.55
2019-06-23T00:28:11.444Z,14.37
2019-06-23T00:30:42.450Z,14.23
2019-06-23T00:33:11.795Z,15.70
2019-06-23T00:35:41.191Z,16.80
2019-06-23T00:38:10.528Z,15.05
2019-06-23T00:40:39.896Z,15.08
2019-06-23T00:43:09.245Z,15.85
2019-06-23T00:45:38.609Z,14.78
2019-06-23T00:48:07.926Z,15.03
2019-06-23T00:50:37.343Z,14.47
2019-06-23T00:53:06.651Z,14.90
2019-06-23T00:55:35.999Z,13.72
2019-06-23T00:58:05.435Z,15.30
2019-06-23T01:00:39.472Z,13.03
2019-06-23T01:03:13.423Z,12.93
2019-06-23T01:05:42.748Z,12.60
2019-06-23T01:08:12.120Z,13.62
2019-06-23T01:10:41.731Z,16.20
2019-06-23T01:13:11.069Z,15.07
2019-06-23T01:15:40.460Z,14.33
2019-06-23T01:18:09.810Z,14.10
2019-06-23T01:20:39.110Z,14.43
2019-06-23T01:23:08.597Z,16.42
2019-06-23T01:25:37.947Z,15.47
2019-06-23T01:28:07.276Z,14.28
2019-06-23T01:30:36.590Z,14.90
2019-06-23T01:33:05.925Z,15.25
2019-06-23T01:35:35.264Z,15.58
2019-06-23T01:38:04.622Z,14.15
2019-06-23T01:40:33.957Z,14.03
2019-06-23T01:43:03.329Z,12.55
2019-06-23T01:45:32.791Z,13.63
2019-06-23T01:48:02.104Z,16.23
2019-06-23T01:50:31.519Z,13.90
2019-06-23T01:53:00.928Z,14.47
2019-06-23T01:55:30.237Z,14.33
2019-06-23T01:57:59.575Z,15.43
2019-06-23T02:00:29.032Z,17.27
2019-06-23T02:02:58.417Z,15.40
2019-06-23T02:05:27.799Z,14.95
2019-06-23T02:07:57.155Z,16.93
2019-06-23T02:10:26.738Z,17.17
2019-06-23T02:12:56.042Z,16.70
2019-06-23T02:15:25.583Z,14.98
2019-06-23T02:17:54.888Z,16.67
2019-06-23T02:20:25.888Z,15.63
2019-06-23T02:22:56.853Z,15.08
2019-06-23T02:25:26.267Z,15.83
2019-06-23T02:27:55.596Z,15.43
2019-06-23T02:30:25.123Z,16.77
2019-06-23T02:32:54.485Z,15.63
2019-06-23T02:35:23.892Z,17.27
2019-06-23T02:37:53.194Z,19.67
2019-06-23T02:40:22.588Z,16.32
2019-06-23T02:42:51.976Z,15.50
2019-06-23T02:45:21.749Z,15.75
2019-06-23T02:47:55.534Z,16.75
2019-06-23T02:50:26.607Z,17.80
2019-06-23T02:56:17.089Z,16.65
2019-06-23T02:58:50.903Z,16.20
2019-06-23T03:01:22.122Z,17.50
2019-06-23T03:03:51.453Z,15.88
2019-06-23T03:06:20.960Z,18.73
2019-06-23T03:08:50.403Z,20.32
2019-06-23T03:11:19.803Z,19.48
2019-06-23T03:13:49.104Z,16.12
2019-06-23T03:16:18.435Z,15.20
2019-06-23T03:18:47.907Z,15.53
2019-06-23T03:21:17.488Z,14.70
2019-06-23T03:23:46.842Z,15.57
2019-06-23T03:26:33.060Z,16.67
2019-06-23T03:29:03.402Z,14.95
2019-06-23T03:34:01.961Z,17.70
2019-06-23T03:36:31.525Z,17.42
2019-06-23T03:39:02.417Z,17.25
2019-06-23T03:41:32.585Z,15.95
2019-06-23T03:44:04.052Z,17.50
2019-06-23T03:46:33.716Z,18.70
2019-06-23T03:49:03.172Z,18.55
2019-06-23T03:51:32.535Z,16.55
2019-06-23T03:54:02.017Z,18.03
2019-06-23T03:56:31.439Z,18.70
2019-06-23T03:59:00.827Z,19.40
2019-06-23T04:03:59.764Z,17.85
2019-06-23T04:06:29.095Z,18.23
2019-06-23T04:08:58.431Z,17.15
2019-06-23T04:11:27.747Z,18.37
2019-06-23T04:13:57.099Z,17.95
2019-06-23T04:16:26.601Z,20.48
2019-06-23T04:18:55.947Z,20.65
2019-06-23T04:21:25.354Z,20.45
2019-06-23T04:23:54.661Z,19.32
2019-06-23T04:26:23.987Z,19.45
2019-06-23T04:28:53.330Z,18.70
2019-06-23T04:31:22.732Z,20.75
2019-06-23T04:33:52.069Z,19.57
2019-06-23T04:36:21.376Z,18.05
2019-06-23T04:38:50.701Z,20.20
2019-06-23T04:41:20.012Z,18.20
2019-06-23T04:43:49.338Z,19.37
2019-06-23T04:46:18.776Z,21.70
2019-06-23T04:48:48.144Z,18.40
2019-06-23T04:51:18.444Z,19.70
2019-06-23T04:53:47.774Z,21.62
2019-06-23T04:56:17.092Z,22.95
2019-06-23T04:58:46.429Z,22.22
2019-06-23T05:01:15.745Z,22.80
2019-06-23T05:03:45.082Z,21.42
2019-06-23T05:06:23.467Z,21.55
2019-06-23T05:08:45.539Z,22.77
2019-06-23T05:11:14.858Z,25.20
2019-06-23T05:13:44.198Z,25.57
2019-06-23T05:16:13.522Z,23.67
2019-06-23T05:18:42.867Z,24.40
2019-06-23T05:21:12.235Z,23.80
2019-06-23T05:23:41.651Z,21.20
2019-06-23T05:26:10.977Z,22.23
2019-06-23T05:28:40.343Z,20.15
2019-06-23T05:31:09.762Z,20.20
2019-06-23T05:33:39.086Z,19.73
2019-06-23T05:36:08.407Z,20.45
2019-06-23T05:38:37.756Z,20.37
2019-06-23T05:41:07.081Z,21.73
2019-06-23T05:43:36.432Z,24.57
2019-06-23T05:46:06.912Z,22.10
2019-06-23T05:48:36.245Z,23.18
2019-06-23T05:51:05.578Z,24.98
2019-06-23T05:53:35.063Z,24.27
2019-06-23T05:56:04.560Z,24.77
2019-06-23T05:58:45.742Z,26.20
2019-06-23T06:01:05.058Z,26.17
2019-06-23T06:03:34.414Z,24.93
2019-06-23T06:06:03.960Z,23.73
2019-06-23T06:08:33.305Z,23.27
2019-06-23T06:11:02.614Z,24.25
2019-06-23T06:13:31.972Z,23.77
2019-06-23T06:16:01.301Z,22.85
2019-06-23T06:18:30.634Z,20.68
2019-06-23T06:20:59.996Z,22.22
2019-06-23T06:23:29.320Z,20.77
2019-06-23T06:25:58.650Z,20.95
2019-06-23T06:30:58.520Z,21.40
2019-06-23T06:33:27.859Z,21.17
2019-06-23T06:35:57.272Z,21.82
2019-06-23T06:38:26.670Z,20.83
2019-06-23T06:40:56.053Z,21.40
2019-06-23T06:43:25.434Z,22.07
2019-06-23T06:45:54.776Z,21.25
2019-06-23T06:48:24.109Z,20.02
2019-06-23T06:50:53.571Z,19.70
2019-06-23T06:53:22.957Z,18.93
2019-06-23T06:55:52.389Z,15.40
2019-06-23T06:58:21.715Z,16.53
2019-06-23T07:00:51.112Z,15.43
2019-06-23T07:03:20.458Z,16.30
2019-06-23T07:05:49.876Z,14.80
2019-06-23T07:08:19.195Z,15.67
2019-06-23T07:10:48.533Z,14.53
2019-06-23T07:13:18.949Z,14.78
2019-06-23T07:15:48.247Z,13.27
2019-06-23T07:18:17.586Z,11.97
2019-06-23T07:20:47.766Z,11.53
2019-06-23T07:25:45.666Z,18.80
2019-06-23T07:28:15.029Z,13.93
2019-06-23T07:31:04.201Z,15.53
2019-06-23T07:33:33.563Z,11.83
2019-06-23T07:36:02.943Z,11.30
2019-06-23T07:38:32.330Z,10.40
2019-06-23T07:41:01.633Z,10.17
2019-06-23T07:43:30.959Z,9.50
2019-06-23T07:46:00.265Z,9.07
2019-06-23T07:48:29.572Z,9.73
2019-06-23T07:50:58.923Z,10.20
2019-06-23T07:53:28.391Z,9.33
2019-06-23T07:55:57.752Z,9.15
2019-06-23T07:58:27.054Z,8.63
2019-06-23T08:00:56.469Z,9.03
2019-06-23T08:03:25.855Z,7.30
2019-06-23T08:05:55.226Z,10.10
2019-06-23T08:08:24.578Z,7.10
2019-06-23T08:10:54.026Z,8.43
2019-06-23T08:13:23.357Z,7.67
2019-06-23T08:16:05.860Z,6.50
2019-06-23T08:18:23.906Z,6.22
2019-06-23T08:20:53.231Z,5.37
2019-06-23T08:23:22.606Z,5.00
2019-06-23T08:25:51.998Z,5.23
2019-06-23T08:28:21.379Z,5.20
2019-06-23T08:30:50.716Z,4.20
2019-06-23T08:33:20.018Z,3.97
2019-06-23T08:35:49.366Z,4.17
2019-06-23T08:38:18.671Z,4.43
2019-06-23T08:40:48.080Z,3.87
2019-06-23T08:46:08.386Z,3.62
2019-06-23T08:48:37.706Z,3.57
2019-06-23T08:51:07.109Z,3.27
2019-06-23T08:53:36.604Z,4.25
2019-06-23T08:56:05.948Z,2.87
2019-06-23T08:58:35.338Z,3.50
2019-06-23T09:01:04.826Z,3.45
2019-06-23T09:03:34.190Z,3.90
2019-06-23T09:06:03.589Z,6.17
2019-06-23T09:08:37.004Z,3.15
2019-06-23T09:11:03.995Z,3.42
2019-06-23T09:13:33.410Z,2.45
2019-06-23T09:16:02.808Z,3.15
2019-06-23T09:18:32.195Z,2.35
2019-06-23T09:21:01.585Z,2.22
2019-06-23T09:23:30.984Z,2.83
2019-06-23T09:26:00.321Z,2.42
2019-06-23T09:28:29.769Z,1.57
2019-06-23T09:30:59.127Z,1.70
2019-06-23T09:33:28.524Z,1.90
2019-06-23T09:35:57.863Z,2.17
2019-06-23T09:38:28.394Z,1.40
2019-06-23T09:40:57.691Z,1.30
2019-06-23T09:43:27.087Z,1.30
2019-06-23T09:45:56.388Z,1.65
2019-06-23T09:49:12.348Z,1.75
2019-06-23T09:51:41.742Z,1.30
2019-06-23T09:54:11.174Z,1.50
2019-06-23T09:56:40.498Z,1.40
2019-06-23T09:59:09.806Z,1.40
2019-06-23T10:01:39.217Z,1.47
2019-06-23T10:04:08.520Z,2.12
2019-06-23T10:06:37.837Z,2.40
2019-06-23T10:09:07.849Z,1.62
2019-06-23T10:11:37.291Z,1.67
2019-06-23T10:14:07.763Z,1.77
2019-06-23T10:16:37.060Z,5.10
2019-06-23T10:19:06.400Z,1.50
2019-06-23T10:21:35.738Z,1.22
2019-06-23T10:24:06.653Z,1.15
2019-06-23T10:26:38.518Z,1.10
2019-06-23T10:29:08.123Z,1.10
2019-06-23T10:31:37.571Z,1.00
2019-06-23T10:34:07.032Z,1.25
2019-06-23T10:36:36.362Z,1.02
2019-06-23T10:39:19.512Z,0.95
2019-06-23T10:41:40.960Z,0.90
2019-06-23T10:44:09.272Z,0.98
2019-06-23T10:46:38.575Z,0.80
2019-06-23T10:49:07.924Z,0.80
2019-06-23T10:51:38.307Z,0.80
2019-06-23T10:54:07.631Z,0.82
2019-06-23T10:56:37.001Z,0.80
2019-06-23T10:59:06.337Z,4.15
2019-06-23T11:01:35.635Z,0.75
2019-06-23T11:04:04.978Z,2.67
2019-06-23T11:06:34.343Z,1.00
2019-06-23T11:09:06.980Z,0.80
2019-06-23T11:11:36.371Z,0.98
2019-06-23T11:14:05.852Z,0.82
2019-06-23T11:16:35.264Z,1.00
2019-06-23T11:19:05.731Z,0.80
2019-06-23T11:21:35.096Z,1.00
2019-06-23T11:24:04.495Z,0.90
2019-06-23T11:26:33.821Z,0.82
2019-06-23T11:29:03.149Z,0.72
2019-06-23T11:31:32.461Z,0.88
2019-06-23T11:34:01.770Z,0.85
2019-06-23T11:36:31.121Z,0.90
2019-06-23T11:39:00.414Z,0.85
2019-06-23T11:41:31.364Z,0.72
2019-06-23T11:44:00.700Z,0.82
2019-06-23T11:46:30.018Z,0.75
2019-06-23T11:48:59.410Z,0.70
2019-06-23T11:51:28.701Z,0.60
2019-06-23T11:53:58.040Z,0.95
2019-06-23T11:56:27.337Z,0.80
2019-06-23T11:58:56.693Z,0.80
2019-06-23T12:01:26.045Z,2.22
2019-06-23T12:03:55.371Z,0.93
2019-06-23T12:06:24.697Z,1.00
2019-06-23T12:08:54.005Z,0.80
2019-06-23T12:11:23.340Z,0.98
2019-06-23T12:13:52.636Z,0.80
2019-06-23T12:16:22.102Z,0.88
2019-06-23T12:18:51.540Z,0.62
2019-06-23T12:21:21.007Z,0.88
2019-06-23T12:23:50.514Z,0.90
2019-06-23T12:26:19.902Z,1.00
2019-06-23T12:28:49.212Z,0.78
2019-06-23T12:31:18.535Z,1.10
2019-06-23T12:33:47.904Z,0.85
2019-06-23T12:36:17.231Z,1.00
2019-06-23T12:38:46.532Z,0.93
2019-06-23T12:41:15.870Z,1.05
2019-06-23T12:43:46.084Z,0.95
2019-06-23T12:46:15.430Z,1.05
2019-06-23T12:51:13.336Z,1.00
2019-06-23T12:56:11.163Z,1.10
2019-06-23T12:58:40.483Z,1.00
2019-06-23T13:01:09.789Z,0.80
2019-06-23T13:06:07.562Z,0.93
2019-06-23T13:08:36.897Z,1.15
2019-06-23T13:13:36.401Z,0.90
2019-06-23T13:16:05.721Z,0.95
2019-06-23T13:21:03.644Z,1.40
2019-06-23T13:23:32.946Z,1.05
2019-06-23T13:26:02.308Z,0.95
2019-06-23T13:28:31.622Z,1.10
2019-06-23T13:31:00.930Z,1.00
2019-06-23T13:33:30.257Z,1.05
2019-06-23T13:35:59.557Z,1.10
2019-06-23T13:38:28.894Z,1.20
2019-06-23T13:40:58.230Z,1.20
2019-06-23T13:43:27.562Z,1.25
2019-06-23T13:45:56.862Z,1.47
2019-06-23T13:50:54.657Z,1.17
2019-06-23T13:55:52.441Z,1.27
2019-06-23T13:58:21.780Z,1.45
2019-06-23T14:00:52.151Z,1.60
2019-06-23T14:03:21.543Z,1.67
2019-06-23T14:05:50.878Z,1.65
2019-06-23T14:08:32.990Z,1.30
2019-06-23T14:10:51.204Z,1.30
2019-06-23T14:13:20.498Z,1.40
2019-06-23T14:15:49.875Z,1.10
2019-06-23T14:18:19.237Z,1.50
2019-06-23T14:20:48.601Z,1.52
2019-06-23T14:23:17.959Z,1.40
2019-06-23T14:25:47.365Z,1.65
2019-06-23T14:28:16.677Z,1.57
2019-06-23T14:30:45.999Z,1.65
2019-06-23T14:33:15.480Z,1.87
2019-06-23T14:35:44.954Z,1.77
2019-06-23T14:38:14.252Z,1.45
2019-06-23T14:40:43.591Z,1.40
2019-06-23T14:43:12.881Z,1.92
2019-06-23T14:45:42.223Z,1.75
2019-06-23T14:48:11.583Z,2.02
2019-06-23T14:50:43.260Z,1.80
2019-06-23T14:53:12.833Z,1.80
2019-06-23T14:55:42.256Z,2.22
2019-06-23T15:00:42.591Z,1.80
2019-06-23T15:03:11.160Z,2.00
2019-06-23T15:08:09.429Z,1.77
2019-06-23T15:10:38.732Z,2.37
2019-06-23T15:13:08.059Z,2.25
2019-06-23T15:18:05.848Z,2.62
2019-06-23T15:23:05.330Z,1.62
2019-06-23T15:25:34.699Z,1.90
2019-06-23T15:28:04.094Z,1.90
2019-06-23T15:33:01.872Z,2.00
2019-06-23T15:37:59.638Z,1.62
2019-06-23T15:42:57.569Z,1.77
2019-06-23T15:45:26.978Z,1.72
2019-06-23T15:50:24.786Z,1.77
2019-06-23T15:55:25.454Z,3.75
2019-06-23T15:58:00.710Z,1.90
2019-06-23T16:00:34.541Z,2.92
2019-06-23T16:03:05.548Z,2.30
2019-06-23T16:05:36.245Z,1.95
2019-06-23T16:08:06.603Z,2.10
2019-06-23T16:10:37.233Z,2.12
2019-06-23T16:13:08.810Z,1.95
2019-06-23T16:15:39.734Z,1.92
2019-06-23T16:18:11.151Z,1.92
2019-06-23T16:20:42.520Z,2.05
2019-06-23T16:23:12.559Z,2.52
2019-06-23T16:25:43.994Z,2.02
2019-06-23T16:28:17.232Z,2.05
2019-06-23T16:30:58.259Z,2.58
2019-06-23T16:33:31.597Z,2.22
2019-06-23T16:36:16.041Z,2.40
2019-06-23T16:39:12.533Z,2.33
2019-06-23T16:42:15.123Z,2.77
2019-06-23T16:44:53.930Z,2.30
2019-06-23T16:47:44.937Z,2.35
2019-06-23T16:50:43.840Z,2.85
2019-06-23T16:53:17.254Z,3.03
2019-06-23T16:56:01.584Z,2.65
2019-06-23T16:58:57.034Z,2.62
2019-06-23T17:02:02.610Z,2.58
2019-06-23T17:04:41.250Z,2.83
2019-06-23T17:07:31.251Z,2.37
2019-06-23T17:10:30.030Z,2.55
2019-06-23T17:13:14.950Z,2.83
2019-06-23T17:15:58.745Z,2.98
2019-06-23T17:18:54.011Z,2.90
2019-06-23T17:21:58.453Z,2.90
2019-06-23T17:24:36.993Z,3.25
2019-06-23T17:27:26.590Z,3.10
2019-06-23T17:30:22.336Z,3.30
2019-06-23T17:33:08.229Z,2.90
2019-06-23T17:35:53.113Z,3.10
2019-06-23T17:38:47.710Z,3.30
2019-06-23T17:41:47.682Z,3.20
2019-06-23T17:46:46.749Z,3.58
2019-06-23T17:49:16.074Z,4.10
2019-06-23T17:51:45.412Z,3.70
2019-06-23T17:54:14.759Z,4.47
2019-06-23T17:56:44.134Z,3.83
2019-06-23T17:59:13.517Z,4.08
2019-06-23T18:01:42.840Z,4.30
2019-06-23T18:04:13.209Z,3.70
2019-06-23T18:06:42.536Z,3.90
2019-06-23T18:09:11.831Z,4.17
2019-06-23T18:11:41.165Z,4.10
2019-06-23T18:14:10.495Z,4.35
2019-06-23T18:16:39.899Z,4.05
2019-06-23T18:19:09.212Z,4.33
2019-06-23T18:21:38.594Z,4.45
2019-06-23T18:24:08.974Z,4.05
2019-06-23T18:26:38.410Z,3.62
2019-06-23T18:29:07.735Z,3.92
2019-06-23T18:31:37.069Z,3.90
2019-06-23T18:34:06.370Z,3.80
2019-06-23T18:36:35.860Z,4.20
2019-06-23T18:39:06.724Z,4.00
2019-06-23T18:41:37.209Z,4.08
2019-06-23T18:44:06.695Z,4.80
2019-06-23T18:46:39.394Z,4.95
2019-06-23T18:49:07.128Z,4.75
2019-06-23T18:51:36.430Z,4.45
2019-06-23T18:54:05.760Z,4.50
2019-06-23T18:56:35.260Z,4.50
2019-06-23T18:59:05.144Z,4.50
2019-06-23T19:04:03.155Z,5.15
2019-06-23T19:06:32.584Z,5.53
2019-06-23T19:09:02.009Z,4.67
2019-06-23T19:11:33.005Z,4.67
2019-06-23T19:14:02.303Z,5.87
2019-06-23T19:16:31.823Z,5.83
2019-06-23T19:19:01.915Z,5.75
2019-06-23T19:21:32.275Z,4.95
2019-06-23T19:24:01.661Z,5.50
2019-06-23T19:26:30.991Z,5.77
2019-06-23T19:29:00.313Z,5.30
2019-06-23T19:31:29.829Z,5.17
2019-06-23T19:33:59.221Z,5.47
2019-06-23T19:36:28.570Z,5.08
2019-06-23T19:38:57.877Z,5.10
2019-06-23T19:41:27.278Z,5.83
2019-06-23T19:44:09.605Z,4.87
2019-06-23T19:46:27.638Z,5.90
2019-06-23T19:48:56.943Z,5.93
2019-06-23T19:51:26.328Z,4.90
2019-06-23T19:54:10.477Z,5.40
2019-06-23T19:56:26.680Z,5.72
2019-06-23T19:58:57.629Z,5.35
2019-06-23T20:01:26.928Z,4.93
2019-06-23T20:03:56.376Z,11.68
2019-06-23T20:06:25.690Z,8.17
2019-06-23T20:08:55.050Z,5.62
2019-06-23T20:11:24.354Z,5.90
2019-06-23T20:13:53.701Z,5.28
2019-06-23T20:16:23.023Z,6.40
2019-06-23T20:18:52.336Z,6.40
2019-06-23T20:21:21.680Z,5.33
2019-06-23T20:23:51.064Z,5.80
2019-06-23T20:26:20.385Z,6.60
2019-06-23T20:28:49.720Z,5.87
2019-06-23T20:31:19.038Z,5.63
2019-06-23T20:33:48.476Z,6.28
2019-06-23T20:36:17.849Z,5.67
2019-06-23T20:38:47.192Z,5.93
2019-06-23T20:41:16.523Z,6.63
2019-06-23T20:43:45.906Z,6.40
2019-06-23T20:46:15.214Z,5.62
2019-06-23T20:48:44.547Z,6.65
2019-06-23T20:51:13.911Z,6.17
2019-06-23T20:53:44.065Z,6.53
2019-06-23T20:58:42.005Z,6.62
2019-06-23T21:01:11.311Z,6.53
2019-06-23T21:03:40.630Z,7.25
2019-06-23T21:06:22.713Z,6.65
2019-06-23T21:08:41.105Z,10.93
2019-06-23T21:11:10.633Z,6.90
2019-06-23T21:13:39.964Z,7.53
2019-06-23T21:16:09.264Z,7.30
2019-06-23T21:18:38.593Z,6.80
2019-06-23T21:21:07.981Z,7.20
2019-06-23T21:23:37.473Z,6.80
2019-06-23T21:26:06.796Z,6.83
2019-06-23T21:28:36.131Z,7.45
2019-06-23T21:31:05.468Z,7.22
2019-06-23T21:33:34.813Z,7.40
2019-06-23T21:36:04.135Z,6.73
2019-06-23T21:38:33.452Z,7.00
2019-06-23T21:41:02.778Z,7.17
2019-06-23T21:43:32.071Z,7.53
2019-06-23T21:46:01.401Z,7.33
2019-06-23T21:48:30.696Z,7.45
2019-06-23T21:51:00.027Z,8.25
2019-06-23T21:53:30.397Z,7.12
2019-06-23T21:55:59.826Z,7.17
2019-06-23T21:58:29.315Z,7.33
2019-06-23T22:01:01.971Z,8.10
2019-06-23T22:03:31.832Z,7.87
2019-06-23T22:06:01.363Z,8.07
2019-06-23T22:08:31.088Z,7.78
2019-06-23T22:11:00.974Z,7.25
2019-06-23T22:13:30.328Z,7.50
2019-06-23T22:15:59.714Z,8.13
2019-06-23T22:18:29.146Z,8.30
2019-06-23T22:20:58.510Z,7.83
2019-06-23T22:23:27.837Z,7.70
2019-06-23T22:25:57.168Z,7.30
2019-06-23T22:28:26.540Z,8.63
2019-06-23T22:30:55.876Z,7.95
2019-06-23T22:33:25.189Z,8.53
2019-06-23T22:35:54.609Z,8.25
2019-06-23T22:38:24.007Z,8.93
2019-06-23T22:40:53.320Z,8.10
2019-06-23T22:43:22.713Z,8.28
2019-06-23T22:45:52.037Z,9.53
2019-06-23T22:48:21.367Z,8.40
2019-06-23T22:50:50.675Z,8.55
2019-06-23T22:53:20.005Z,9.13
2019-06-23T22:55:49.425Z,8.90
2019-06-23T22:58:18.741Z,7.58
2019-06-23T23:00:48.049Z,8.50
2019-06-23T23:05:47.076Z,8.65
2019-06-23T23:08:16.402Z,8.73
2019-06-23T23:10:45.733Z,8.63
2019-06-23T23:13:15.128Z,8.08
2019-06-23T23:15:44.458Z,9.68
2019-06-23T23:18:13.765Z,8.55
2019-06-23T23:20:43.087Z,9.18
2019-06-23T23:23:12.371Z,8.15
2019-06-23T23:25:41.709Z,9.15
2019-06-23T23:28:11.022Z,9.75
2019-06-23T23:30:40.859Z,9.05
2019-06-23T23:33:10.258Z,9.73
2019-06-23T23:35:39.562Z,8.75
2019-06-23T23:38:08.899Z,9.38
2019-06-23T23:40:38.204Z,8.55
2019-06-23T23:43:07.516Z,9.20
2019-06-23T23:45:36.940Z,9.15
2019-06-23T23:48:06.412Z,9.20
2019-06-23T23:50:35.735Z,9.13
2019-06-23T23:53:05.109Z,9.40
2019-06-23T23:55:34.430Z,9.33
2019-06-23T23:58:05.160Z,8.68
